sensor_id;sensor_type;location;lat;lon;timestamp;pressure;altitude;pressure_sealevel;temperature;humidity
42451;BME280;28080;51.138;17.170;2024-01-16T00:04:39;98353.20;;;-0.14;83.98
42451;BME280;28080;51.138;17.170;2024-01-16T00:15:06;98361.92;;;-0.21;85.24
42451;BME280;28080;51.138;17.170;2024-01-16T00:25:31;98401.40;;;-0.38;84.17
42451;BME280;28080;51.138;17.170;2024-01-16T00:35:56;98408.79;;;-0.49;84.08
42451;BME280;28080;51.138;17.170;2024-01-16T00:46:31;98430.03;;;-0.52;83.56
42451;BME280;28080;51.138;17.170;2024-01-16T00:56:56;98458.80;;;-0.57;83.54
42451;BME280;28080;51.138;17.170;2024-01-16T01:07:23;98484.04;;;-0.61;83.60
42451;BME280;28080;51.138;17.170;2024-01-16T01:17:50;98501.27;;;-0.71;83.78
42451;BME280;28080;51.138;17.170;2024-01-16T01:28:07;98517.86;;;-0.72;83.65
42451;BME280;28080;51.138;17.170;2024-01-16T01:38:32;98537.80;;;-0.70;83.34
42451;BME280;28080;51.138;17.170;2024-01-16T01:48:57;98541.95;;;-0.67;83.07
42451;BME280;28080;51.138;17.170;2024-01-16T01:59:23;98567.16;;;-0.70;82.17
42451;BME280;28080;51.138;17.170;2024-01-16T02:09:49;98573.85;;;-0.70;81.55
42451;BME280;28080;51.138;17.170;2024-01-16T02:20:15;98582.54;;;-0.64;81.55
42451;BME280;28080;51.138;17.170;2024-01-16T02:30:43;98596.05;;;-0.62;81.06
42451;BME280;28080;51.138;17.170;2024-01-16T02:41:17;98610.98;;;-0.62;80.99
42451;BME280;28080;51.138;17.170;2024-01-16T02:51:42;98622.27;;;-0.61;81.16
42451;BME280;28080;51.138;17.170;2024-01-16T03:02:07;98632.21;;;-0.61;81.09
42451;BME280;28080;51.138;17.170;2024-01-16T03:12:34;98644.97;;;-0.67;81.54
42451;BME280;28080;51.138;17.170;2024-01-16T03:22:59;98655.61;;;-0.83;82.31
42451;BME280;28080;51.138;17.170;2024-01-16T03:33:24;98657.14;;;-1.17;83.18
42451;BME280;28080;51.138;17.170;2024-01-16T03:43:49;98660.89;;;-1.34;84.08
42451;BME280;28080;51.138;17.170;2024-01-16T03:54:14;98664.80;;;-1.41;84.44
42451;BME280;28080;51.138;17.170;2024-01-16T04:04:40;98677.52;;;-1.46;84.51
42451;BME280;28080;51.138;17.170;2024-01-16T04:15:07;98688.46;;;-1.60;84.27
42451;BME280;28080;51.138;17.170;2024-01-16T04:25:32;98690.48;;;-1.68;84.44
42451;BME280;28080;51.138;17.170;2024-01-16T04:35:57;98701.40;;;-1.66;84.54
42451;BME280;28080;51.138;17.170;2024-01-16T04:46:22;98716.11;;;-1.65;84.99
42451;BME280;28080;51.138;17.170;2024-01-16T04:56:48;98707.50;;;-1.64;85.23
42451;BME280;28080;51.138;17.170;2024-01-16T05:07:13;98732.61;;;-1.62;85.33
42451;BME280;28080;51.138;17.170;2024-01-16T05:17:38;98747.73;;;-1.67;85.67
42451;BME280;28080;51.138;17.170;2024-01-16T05:28:03;98752.25;;;-1.69;85.79
42451;BME280;28080;51.138;17.170;2024-01-16T05:38:29;98749.87;;;-1.70;85.56
42451;BME280;28080;51.138;17.170;2024-01-16T05:48:54;98760.54;;;-1.71;85.63
42451;BME280;28080;51.138;17.170;2024-01-16T05:59:19;98768.60;;;-1.71;85.81
42451;BME280;28080;51.138;17.170;2024-01-16T06:09:44;98790.41;;;-1.77;86.07
42451;BME280;28080;51.138;17.170;2024-01-16T06:20:11;98808.23;;;-1.87;86.50
42451;BME280;28080;51.138;17.170;2024-01-16T06:30:36;98822.92;;;-1.96;86.42
42451;BME280;28080;51.138;17.170;2024-01-16T06:41:01;98832.02;;;-2.01;85.97
42451;BME280;28080;51.138;17.170;2024-01-16T06:51:26;98841.36;;;-1.93;85.44
42451;BME280;28080;51.138;17.170;2024-01-16T07:01:52;98856.23;;;-1.87;84.54
42451;BME280;28080;51.138;17.170;2024-01-16T07:12:18;98888.64;;;-1.78;84.03
42451;BME280;28080;51.138;17.170;2024-01-16T07:22:43;98911.84;;;-1.70;83.56
42451;BME280;28080;51.138;17.170;2024-01-16T07:33:09;98935.36;;;-1.66;83.03
42451;BME280;28080;51.138;17.170;2024-01-16T07:43:17;98960.73;;;-1.66;82.75
42451;BME280;28080;51.138;17.170;2024-01-16T07:53:26;98982.63;;;-1.59;82.43
42451;BME280;28080;51.138;17.170;2024-01-16T08:03:52;98998.34;;;-1.52;82.35
42451;BME280;28080;51.138;17.170;2024-01-16T08:14:17;99000.66;;;-1.44;82.08
42451;BME280;28080;51.138;17.170;2024-01-16T08:24:25;99027.08;;;-1.44;82.08
42451;BME280;28080;51.138;17.170;2024-01-16T08:34:50;99041.48;;;-1.39;81.57
42451;BME280;28080;51.138;17.170;2024-01-16T08:45:15;99059.58;;;-1.37;81.39
42451;BME280;28080;51.138;17.170;2024-01-16T08:56:00;99073.63;;;-1.42;81.78
42451;BME280;28080;51.138;17.170;2024-01-16T09:06:26;99081.73;;;-1.43;81.90
42451;BME280;28080;51.138;17.170;2024-01-16T09:16:51;99084.44;;;-1.36;82.09
42451;BME280;28080;51.138;17.170;2024-01-16T09:27:18;99089.31;;;-1.28;82.24
42451;BME280;28080;51.138;17.170;2024-01-16T09:37:43;99079.34;;;-1.27;82.51
42451;BME280;28080;51.138;17.170;2024-01-16T09:48:09;99101.94;;;-1.21;81.76
42451;BME280;28080;51.138;17.170;2024-01-16T09:58:37;99104.90;;;-1.22;80.93
42451;BME280;28080;51.138;17.170;2024-01-16T10:09:03;99124.84;;;-1.34;80.82
42451;BME280;28080;51.138;17.170;2024-01-16T10:19:29;99139.98;;;-1.30;81.22
42451;BME280;28080;51.138;17.170;2024-01-16T10:29:58;99140.23;;;-1.27;81.08
42451;BME280;28080;51.138;17.170;2024-01-16T10:40:25;99149.77;;;-1.25;81.19
42451;BME280;28080;51.138;17.170;2024-01-16T10:50:52;99153.57;;;-1.26;81.06
42451;BME280;28080;51.138;17.170;2024-01-16T11:01:18;99159.47;;;-1.28;81.22
42451;BME280;28080;51.138;17.170;2024-01-16T11:11:47;99161.23;;;-1.36;80.89
42451;BME280;28080;51.138;17.170;2024-01-16T11:22:17;99167.65;;;-1.37;81.27
42451;BME280;28080;51.138;17.170;2024-01-16T11:32:43;99170.34;;;-1.41;81.58
42451;BME280;28080;51.138;17.170;2024-01-16T11:43:37;99180.45;;;-1.35;81.90
42451;BME280;28080;51.138;17.170;2024-01-16T11:54:02;99182.45;;;-1.33;81.73
42451;BME280;28080;51.138;17.170;2024-01-16T12:04:28;99192.61;;;-1.35;81.97
42451;BME280;28080;51.138;17.170;2024-01-16T12:14:56;99197.71;;;-1.39;82.44
42451;BME280;28080;51.138;17.170;2024-01-16T12:25:21;99204.99;;;-1.47;83.57
42451;BME280;28080;51.138;17.170;2024-01-16T12:35:47;99213.82;;;-1.56;84.14
42451;BME280;28080;51.138;17.170;2024-01-16T12:46:03;99219.90;;;-1.59;84.46
42451;BME280;28080;51.138;17.170;2024-01-16T12:56:30;99230.52;;;-1.59;84.46
42451;BME280;28080;51.138;17.170;2024-01-16T13:07:03;99245.21;;;-1.50;84.41
42451;BME280;28080;51.138;17.170;2024-01-16T13:17:29;99241.64;;;-1.46;84.31
42451;BME280;28080;51.138;17.170;2024-01-16T13:27:54;99239.81;;;-1.42;83.92
42451;BME280;28080;51.138;17.170;2024-01-16T13:38:20;99243.45;;;-1.43;83.26
42451;BME280;28080;51.138;17.170;2024-01-16T13:48:45;99246.61;;;-1.45;82.79
42451;BME280;28080;51.138;17.170;2024-01-16T13:59:09;99257.60;;;-1.46;82.45
42451;BME280;28080;51.138;17.170;2024-01-16T14:09:35;99259.09;;;-1.44;82.43
42451;BME280;28080;51.138;17.170;2024-01-16T14:20:00;99263.39;;;-1.45;82.56
42451;BME280;28080;51.138;17.170;2024-01-16T14:30:27;99268.95;;;-1.47;82.90
42451;BME280;28080;51.138;17.170;2024-01-16T14:40:55;99274.62;;;-1.41;82.89
42451;BME280;28080;51.138;17.170;2024-01-16T14:51:21;99275.09;;;-1.34;83.03
42451;BME280;28080;51.138;17.170;2024-01-16T15:01:46;99276.25;;;-1.33;82.86
42451;BME280;28080;51.138;17.170;2024-01-16T15:12:11;99282.36;;;-1.30;83.10
42451;BME280;28080;51.138;17.170;2024-01-16T15:22:39;99292.95;;;-1.23;82.97
42451;BME280;28080;51.138;17.170;2024-01-16T15:33:04;99309.72;;;-1.22;82.88
42451;BME280;28080;51.138;17.170;2024-01-16T15:43:30;99314.40;;;-1.17;82.69
42451;BME280;28080;51.138;17.170;2024-01-16T15:53:55;99306.39;;;-1.19;81.77
42451;BME280;28080;51.138;17.170;2024-01-16T16:04:20;99309.51;;;-1.26;81.02
42451;BME280;28080;51.138;17.170;2024-01-16T16:14:47;99306.23;;;-1.32;80.59
42451;BME280;28080;51.138;17.170;2024-01-16T16:25:12;99304.48;;;-1.43;79.98
42451;BME280;28080;51.138;17.170;2024-01-16T16:35:38;99318.92;;;-1.62;79.89
42451;BME280;28080;51.138;17.170;2024-01-16T16:46:03;99332.95;;;-2.00;80.38
42451;BME280;28080;51.138;17.170;2024-01-16T16:56:20;99344.80;;;-2.29;81.07
42451;BME280;28080;51.138;17.170;2024-01-16T17:06:46;99335.80;;;-2.32;81.11
42451;BME280;28080;51.138;17.170;2024-01-16T17:17:11;99342.63;;;-2.37;80.42
42451;BME280;28080;51.138;17.170;2024-01-16T17:27:30;99360.24;;;-2.59;80.66
42451;BME280;28080;51.138;17.170;2024-01-16T17:37:57;99371.44;;;-2.93;81.15
42451;BME280;28080;51.138;17.170;2024-01-16T17:48:42;99375.45;;;-3.23;81.86
42451;BME280;28080;51.138;17.170;2024-01-16T17:59:07;99368.54;;;-3.44;82.58
42451;BME280;28080;51.138;17.170;2024-01-16T18:09:32;99374.83;;;-3.51;82.59
42451;BME280;28080;51.138;17.170;2024-01-16T18:19:59;99386.98;;;-3.61;82.61
42451;BME280;28080;51.138;17.170;2024-01-16T18:30:25;99383.98;;;-3.65;82.41
42451;BME280;28080;51.138;17.170;2024-01-16T18:40:43;99376.74;;;-3.62;82.59
42451;BME280;28080;51.138;17.170;2024-01-16T18:51:09;99374.23;;;-3.56;82.39
42451;BME280;28080;51.138;17.170;2024-01-16T19:01:36;99369.69;;;-3.50;82.09
42451;BME280;28080;51.138;17.170;2024-01-16T19:11:57;99376.89;;;-3.35;82.15
42451;BME280;28080;51.138;17.170;2024-01-16T19:22:22;99390.33;;;-3.21;82.00
42451;BME280;28080;51.138;17.170;2024-01-16T19:32:47;99384.03;;;-3.15;81.60
42451;BME280;28080;51.138;17.170;2024-01-16T19:43:13;99385.21;;;-3.14;81.16
42451;BME280;28080;51.138;17.170;2024-01-16T19:53:38;99377.33;;;-3.05;81.38
42451;BME280;28080;51.138;17.170;2024-01-16T20:04:04;99375.48;;;-2.98;80.83
42451;BME280;28080;51.138;17.170;2024-01-16T20:14:29;99383.37;;;-2.91;80.61
42451;BME280;28080;51.138;17.170;2024-01-16T20:24:54;99387.70;;;-2.85;80.27
42451;BME280;28080;51.138;17.170;2024-01-16T20:35:21;99386.58;;;-2.81;80.05
42451;BME280;28080;51.138;17.170;2024-01-16T20:45:46;99384.18;;;-2.81;80.08
42451;BME280;28080;51.138;17.170;2024-01-16T20:56:14;99388.73;;;-2.78;80.50
42451;BME280;28080;51.138;17.170;2024-01-16T21:06:43;99394.34;;;-2.76;80.44
42451;BME280;28080;51.138;17.170;2024-01-16T21:17:08;99393.64;;;-2.76;80.33
42451;BME280;28080;51.138;17.170;2024-01-16T21:27:33;99384.26;;;-2.77;80.44
42451;BME280;28080;51.138;17.170;2024-01-16T21:38:00;99382.69;;;-2.75;80.77
42451;BME280;28080;51.138;17.170;2024-01-16T21:48:27;99371.73;;;-2.75;80.62
42451;BME280;28080;51.138;17.170;2024-01-16T21:58:53;99377.06;;;-2.69;80.88
42451;BME280;28080;51.138;17.170;2024-01-16T22:09:18;99379.20;;;-2.65;80.63
42451;BME280;28080;51.138;17.170;2024-01-16T22:19:45;99377.48;;;-2.64;80.59
42451;BME280;28080;51.138;17.170;2024-01-16T22:30:11;99366.91;;;-2.67;80.40
42451;BME280;28080;51.138;17.170;2024-01-16T22:40:37;99358.55;;;-2.67;80.30
42451;BME280;28080;51.138;17.170;2024-01-16T22:51:02;99355.30;;;-2.68;79.78
42451;BME280;28080;51.138;17.170;2024-01-16T23:01:28;99351.32;;;-2.73;78.98
42451;BME280;28080;51.138;17.170;2024-01-16T23:11:53;99349.80;;;-2.82;78.74
42451;BME280;28080;51.138;17.170;2024-01-16T23:22:18;99343.61;;;-2.88;78.20
42451;BME280;28080;51.138;17.170;2024-01-16T23:32:43;99342.27;;;-2.97;77.72
42451;BME280;28080;51.138;17.170;2024-01-16T23:43:09;99330.02;;;-3.00;78.29
42451;BME280;28080;51.138;17.170;2024-01-16T23:53:34;99306.52;;;-3.13;78.03
